createdAt,value
2019-05-10T00:00:10.748Z,9.40
2019-05-10T00:02:35.165Z,9.63
2019-05-10T00:04:59.239Z,9.15
2019-05-10T00:07:23.743Z,10.23
2019-05-10T00:09:29.310Z,10.85
2019-05-10T00:11:44.343Z,9.73
2019-05-10T00:14:02.884Z,9.15
2019-05-10T00:16:09.659Z,9.88
2019-05-10T00:18:16.067Z,9.50
2019-05-10T00:20:22.485Z,10.40
2019-05-10T00:22:28.874Z,9.48
2019-05-10T00:24:35.359Z,10.82
2019-05-10T00:26:41.911Z,9.25
2019-05-10T00:28:48.472Z,10.28
2019-05-10T00:30:55.077Z,9.45
2019-05-10T00:33:01.558Z,9.88
2019-05-10T00:35:08.330Z,9.93
2019-05-10T00:37:14.780Z,9.20
2019-05-10T00:39:21.213Z,10.08
2019-05-10T00:41:27.668Z,10.93
2019-05-10T00:43:34.198Z,9.63
2019-05-10T00:45:40.630Z,10.45
2019-05-10T00:47:47.096Z,10.18
2019-05-10T00:49:53.553Z,9.45
2019-05-10T00:52:00.187Z,10.40
2019-05-10T00:54:06.787Z,10.50
2019-05-10T00:56:13.251Z,10.40
2019-05-10T00:58:19.737Z,9.98
2019-05-10T01:00:26.119Z,10.53
2019-05-10T01:02:32.503Z,10.70
2019-05-10T01:04:39.026Z,10.43
2019-05-10T01:06:45.564Z,10.50
2019-05-10T01:08:51.956Z,9.80
2019-05-10T01:10:58.373Z,9.98
2019-05-10T01:13:04.825Z,9.95
2019-05-10T01:15:11.929Z,10.63
2019-05-10T01:17:18.427Z,11.00
2019-05-10T01:19:24.835Z,11.28
2019-05-10T01:21:32.371Z,10.35
2019-05-10T01:23:38.793Z,9.85
2019-05-10T01:25:45.230Z,10.15
2019-05-10T01:27:51.621Z,11.55
2019-05-10T01:29:58.076Z,10.75
2019-05-10T01:32:04.615Z,11.15
2019-05-10T01:34:11.008Z,9.93
2019-05-10T01:36:17.652Z,9.90
2019-05-10T01:38:24.109Z,10.30
2019-05-10T01:40:30.595Z,9.63
2019-05-10T01:42:37.003Z,10.65
2019-05-10T01:44:43.390Z,11.12
2019-05-10T01:46:49.926Z,10.98
2019-05-10T01:48:56.426Z,13.15
2019-05-10T01:51:02.970Z,12.10
2019-05-10T01:53:09.441Z,10.70
2019-05-10T01:55:16.087Z,11.10
2019-05-10T01:57:22.493Z,10.70
2019-05-10T01:59:28.894Z,11.00
2019-05-10T02:01:35.390Z,10.43
2019-05-10T02:03:41.877Z,11.70
2019-05-10T02:05:49.160Z,11.00
2019-05-10T02:07:55.581Z,11.20
2019-05-10T02:10:01.975Z,11.53
2019-05-10T02:12:08.432Z,11.12
2019-05-10T02:14:15.079Z,11.18
2019-05-10T02:16:21.506Z,10.80
2019-05-10T02:18:28.061Z,12.05
2019-05-10T02:20:34.478Z,10.35
2019-05-10T02:22:40.876Z,11.60
2019-05-10T02:24:47.479Z,11.08
2019-05-10T02:26:53.898Z,10.80
2019-05-10T02:29:00.400Z,10.65
2019-05-10T02:31:06.801Z,10.23
2019-05-10T02:33:13.261Z,10.45
2019-05-10T02:35:20.012Z,11.97
2019-05-10T02:37:26.549Z,10.93
2019-05-10T02:39:33.063Z,10.20
2019-05-10T02:41:39.589Z,10.90
2019-05-10T02:43:46.152Z,10.48
2019-05-10T02:45:52.754Z,10.38
2019-05-10T02:47:59.310Z,11.12
2019-05-10T02:50:07.779Z,10.95
2019-05-10T02:52:14.255Z,10.60
2019-05-10T02:54:20.931Z,11.75
2019-05-10T02:56:31.363Z,10.70
2019-05-10T02:58:39.159Z,10.85
2019-05-10T03:00:49.064Z,10.90
2019-05-10T03:02:58.178Z,12.05
2019-05-10T03:07:12.253Z,10.70
2019-05-10T03:09:20.419Z,11.63
2019-05-10T03:11:31.591Z,12.13
2019-05-10T03:13:40.079Z,11.53
2019-05-10T03:15:50.711Z,11.40
2019-05-10T03:17:58.247Z,10.32
2019-05-10T03:20:04.988Z,10.48
2019-05-10T03:22:11.537Z,11.63
2019-05-10T03:24:18.482Z,10.88
2019-05-10T03:26:24.880Z,10.55
2019-05-10T03:28:31.830Z,13.32
2019-05-10T03:30:38.464Z,11.50
2019-05-10T03:32:44.874Z,13.13
2019-05-10T03:34:51.403Z,11.90
2019-05-10T03:36:58.867Z,11.18
2019-05-10T03:39:06.882Z,11.90
2019-05-10T03:41:13.406Z,11.20
2019-05-10T03:43:19.897Z,12.33
2019-05-10T03:45:26.370Z,18.25
2019-05-10T03:47:32.752Z,11.95
2019-05-10T03:49:39.186Z,11.80
2019-05-10T03:51:45.577Z,12.00
2019-05-10T03:53:52.187Z,11.40
2019-05-10T03:55:58.612Z,11.65
2019-05-10T03:58:05.064Z,11.50
2019-05-10T04:00:13.888Z,10.70
2019-05-10T04:02:20.613Z,11.35
2019-05-10T04:04:27.360Z,11.78
2019-05-10T04:06:34.130Z,11.30
2019-05-10T04:08:41.198Z,11.50
2019-05-10T04:10:47.803Z,11.73
2019-05-10T04:12:54.290Z,11.12
2019-05-10T04:15:00.980Z,11.53
2019-05-10T04:17:08.951Z,11.30
2019-05-10T04:19:15.382Z,11.48
2019-05-10T04:21:21.835Z,19.15
2019-05-10T04:23:30.001Z,12.53
2019-05-10T04:25:36.407Z,12.30
2019-05-10T04:27:42.833Z,11.20
2019-05-10T04:29:49.358Z,13.00
2019-05-10T04:31:55.767Z,12.60
2019-05-10T04:34:02.196Z,12.28
2019-05-10T04:36:12.249Z,12.37
2019-05-10T04:38:16.861Z,12.43
2019-05-10T04:40:23.285Z,12.13
2019-05-10T04:42:32.785Z,11.45
2019-05-10T04:44:39.437Z,13.05
2019-05-10T04:46:46.016Z,12.05
2019-05-10T04:48:53.597Z,12.10
2019-05-10T04:51:00.798Z,12.23
2019-05-10T04:53:09.509Z,11.33
2019-05-10T04:55:18.773Z,13.08
2019-05-10T04:57:25.325Z,12.15
2019-05-10T04:59:31.741Z,13.98
2019-05-10T05:01:38.138Z,12.60
2019-05-10T05:03:44.546Z,11.73
2019-05-10T05:05:51.116Z,12.28
2019-05-10T05:07:57.659Z,12.75
2019-05-10T05:10:06.185Z,12.28
2019-05-10T05:12:12.611Z,12.37
2019-05-10T05:14:19.082Z,10.98
2019-05-10T05:16:25.460Z,13.03
2019-05-10T05:18:31.883Z,11.90
2019-05-10T05:20:38.277Z,12.55
2019-05-10T05:22:44.747Z,12.35
2019-05-10T05:24:55.124Z,11.68
2019-05-10T05:26:59.492Z,11.22
2019-05-10T05:29:06.061Z,11.57
2019-05-10T05:31:12.745Z,11.78
2019-05-10T05:33:19.135Z,11.28
2019-05-10T05:35:25.602Z,12.25
2019-05-10T05:37:32.102Z,12.18
2019-05-10T05:39:38.494Z,11.40
2019-05-10T05:41:49.107Z,12.03
2019-05-10T05:43:53.214Z,12.65
2019-05-10T05:45:59.613Z,11.28
2019-05-10T05:48:07.215Z,11.57
2019-05-10T05:50:14.059Z,11.53
2019-05-10T05:52:20.475Z,11.05
2019-05-10T05:54:26.917Z,15.58
2019-05-10T05:56:33.484Z,10.88
2019-05-10T05:58:44.775Z,10.70
2019-05-10T06:00:48.299Z,9.13
2019-05-10T06:02:54.806Z,10.63
2019-05-10T06:05:01.272Z,10.13
2019-05-10T06:07:07.657Z,14.58
2019-05-10T06:09:14.079Z,10.15
2019-05-10T06:11:20.471Z,10.58
2019-05-10T06:13:30.353Z,9.78
2019-05-10T06:15:35.258Z,9.08
2019-05-10T06:17:41.680Z,9.28
2019-05-10T06:19:48.048Z,7.85
2019-05-10T06:21:58.151Z,8.38
2019-05-10T06:24:07.536Z,8.83
2019-05-10T06:26:21.342Z,9.20
2019-05-10T06:28:27.033Z,7.72
2019-05-10T06:30:30.625Z,9.50
2019-05-10T06:32:37.223Z,8.33
2019-05-10T06:34:43.652Z,8.78
2019-05-10T06:36:50.126Z,8.45
2019-05-10T06:38:56.585Z,9.40
2019-05-10T06:41:03.004Z,9.70
2019-05-10T06:43:13.294Z,8.43
2019-05-10T06:45:18.955Z,9.20
2019-05-10T06:47:25.374Z,8.55
2019-05-10T06:49:31.808Z,7.97
2019-05-10T06:51:42.746Z,9.28
2019-05-10T06:53:52.055Z,9.27
2019-05-10T06:55:54.674Z,9.70
2019-05-10T06:58:01.066Z,8.98
2019-05-10T07:00:09.172Z,8.58
2019-05-10T07:04:23.618Z,14.03
2019-05-10T07:06:30.258Z,8.20
2019-05-10T07:08:44.303Z,6.90
2019-05-10T07:10:44.750Z,7.87
2019-05-10T07:12:51.379Z,7.58
2019-05-10T07:15:03.333Z,7.05
2019-05-10T07:17:07.607Z,7.47
2019-05-10T07:19:14.236Z,7.87
2019-05-10T07:21:20.667Z,7.55
2019-05-10T07:23:30.115Z,7.20
2019-05-10T07:25:37.925Z,7.80
2019-05-10T07:27:44.246Z,6.90
2019-05-10T07:29:51.000Z,6.25
2019-05-10T07:31:57.536Z,6.00
2019-05-10T07:34:04.066Z,6.05
2019-05-10T07:36:14.803Z,6.25
2019-05-10T07:38:23.863Z,6.05
2019-05-10T07:40:26.810Z,5.70
2019-05-10T07:42:33.282Z,5.70
2019-05-10T07:44:41.546Z,6.55
2019-05-10T07:46:54.308Z,7.47
2019-05-10T07:48:55.909Z,8.05
2019-05-10T07:51:02.348Z,10.35
2019-05-10T07:53:08.738Z,6.62
2019-05-10T07:55:18.639Z,6.17
2019-05-10T07:57:24.665Z,7.37
2019-05-10T07:59:49.406Z,5.78
2019-05-10T08:01:40.685Z,6.22
2019-05-10T08:03:52.199Z,23.15
2019-05-10T08:05:58.926Z,7.03
2019-05-10T08:08:03.495Z,5.90
2019-05-10T08:10:11.116Z,5.20
2019-05-10T08:12:19.446Z,5.75
2019-05-10T08:14:25.685Z,6.67
2019-05-10T08:16:32.185Z,6.92
2019-05-10T08:18:41.992Z,6.15
2019-05-10T08:20:54.066Z,5.53
2019-05-10T08:22:55.255Z,6.30
2019-05-10T08:25:02.329Z,6.53
2019-05-10T08:27:14.068Z,6.37
2019-05-10T08:29:18.224Z,6.62
2019-05-10T08:31:26.379Z,6.62
2019-05-10T08:33:34.066Z,6.20
2019-05-10T08:35:45.923Z,5.62
2019-05-10T08:37:49.220Z,5.70
2019-05-10T08:39:56.241Z,5.60
2019-05-10T08:42:13.637Z,19.02
2019-05-10T08:44:19.133Z,15.80
2019-05-10T08:46:19.432Z,11.00
2019-05-10T08:48:27.795Z,6.43
2019-05-10T08:50:48.833Z,5.78
2019-05-10T08:52:42.639Z,5.20
2019-05-10T08:54:50.068Z,5.37
2019-05-10T08:57:01.055Z,5.12
2019-05-10T08:59:09.302Z,5.78
2019-05-10T09:01:25.919Z,5.30
2019-05-10T09:03:22.784Z,6.13
2019-05-10T09:05:31.458Z,5.60
2019-05-10T09:07:39.125Z,6.00
2019-05-10T09:09:49.676Z,6.33
2019-05-10T09:11:57.670Z,6.28
2019-05-10T09:14:03.204Z,6.17
2019-05-10T09:16:09.938Z,6.37
2019-05-10T09:18:16.319Z,7.05
2019-05-10T09:20:26.504Z,6.12
2019-05-10T09:22:33.942Z,5.83
2019-05-10T09:24:41.000Z,6.40
2019-05-10T09:26:54.901Z,6.20
2019-05-10T09:28:57.686Z,6.60
2019-05-10T09:31:17.063Z,5.70
2019-05-10T09:33:14.343Z,6.47
2019-05-10T09:35:22.177Z,6.10
2019-05-10T09:37:28.599Z,5.85
2019-05-10T09:39:35.092Z,5.85
2019-05-10T09:41:42.195Z,6.35
2019-05-10T09:43:50.727Z,6.15
2019-05-10T09:45:58.019Z,6.17
2019-05-10T09:48:04.501Z,6.25
2019-05-10T09:50:12.629Z,5.53
2019-05-10T09:52:19.378Z,6.78
2019-05-10T09:54:29.390Z,5.90
2019-05-10T09:56:42.065Z,7.27
2019-05-10T09:58:42.107Z,6.60
2019-05-10T10:00:48.692Z,6.40
2019-05-10T10:02:56.938Z,6.33
2019-05-10T10:05:07.526Z,6.30
2019-05-10T10:07:13.855Z,6.45
2019-05-10T10:09:24.726Z,6.80
2019-05-10T10:11:28.407Z,6.03
2019-05-10T10:13:43.071Z,6.42
2019-05-10T10:15:42.948Z,5.80
2019-05-10T10:17:49.376Z,6.17
2019-05-10T10:19:57.864Z,5.83
2019-05-10T10:22:05.546Z,5.03
2019-05-10T10:24:17.259Z,5.40
2019-05-10T10:26:22.371Z,3.83
2019-05-10T10:28:28.705Z,3.97
2019-05-10T10:30:37.286Z,4.42
2019-05-10T10:32:44.627Z,5.17
2019-05-10T10:34:54.747Z,5.70
2019-05-10T10:37:00.504Z,5.58
2019-05-10T10:39:08.579Z,6.58
2019-05-10T10:41:17.068Z,5.27
2019-05-10T10:43:23.212Z,4.77
2019-05-10T10:45:29.609Z,4.05
2019-05-10T10:47:38.044Z,4.45
2019-05-10T10:49:44.324Z,4.28
2019-05-10T10:51:50.718Z,3.95
2019-05-10T10:53:58.091Z,4.83
2019-05-10T10:56:07.469Z,4.62
2019-05-10T10:58:13.028Z,5.47
2019-05-10T11:00:32.896Z,6.08
2019-05-10T11:02:41.548Z,6.33
2019-05-10T11:04:48.992Z,7.05
2019-05-10T11:07:09.366Z,6.53
2019-05-10T11:09:05.842Z,6.40
2019-05-10T11:11:12.244Z,7.28
2019-05-10T11:13:29.018Z,7.50
2019-05-10T11:15:28.995Z,6.87
2019-05-10T11:17:35.050Z,6.75
2019-05-10T11:19:41.828Z,7.10
2019-05-10T11:21:48.336Z,7.45
2019-05-10T11:23:54.750Z,6.85
2019-05-10T11:26:01.430Z,7.20
2019-05-10T11:28:11.850Z,6.60
2019-05-10T11:30:18.594Z,6.57
2019-05-10T11:32:24.977Z,5.78
2019-05-10T11:34:37.593Z,7.37
2019-05-10T11:36:40.526Z,6.10
2019-05-10T11:38:56.588Z,7.23
2019-05-10T11:40:55.741Z,6.13
2019-05-10T11:43:02.162Z,6.33
2019-05-10T11:45:11.091Z,5.83
2019-05-10T11:47:24.050Z,5.40
2019-05-10T11:49:25.505Z,4.78
2019-05-10T11:51:31.935Z,5.20
2019-05-10T11:53:38.353Z,4.80
2019-05-10T11:55:44.746Z,5.53
2019-05-10T11:58:01.946Z,4.35
2019-05-10T11:59:59.386Z,4.90
2019-05-10T12:02:10.384Z,4.92
2019-05-10T12:04:28.785Z,5.37
2019-05-10T12:06:23.085Z,4.93
2019-05-10T12:08:29.468Z,5.00
2019-05-10T12:10:41.185Z,5.50
2019-05-10T12:12:59.870Z,6.00
2019-05-10T12:14:53.975Z,5.12
2019-05-10T12:17:05.732Z,5.70
2019-05-10T12:19:17.105Z,5.60
2019-05-10T12:21:16.357Z,4.00
2019-05-10T12:23:30.233Z,5.28
2019-05-10T12:25:47.072Z,5.25
2019-05-10T12:27:45.268Z,4.60
2019-05-10T12:29:55.449Z,5.25
2019-05-10T12:31:57.059Z,5.12
2019-05-10T12:34:09.092Z,4.70
2019-05-10T12:36:22.365Z,5.10
2019-05-10T12:38:23.523Z,5.03
2019-05-10T12:40:28.421Z,5.15
2019-05-10T12:42:34.821Z,4.95
2019-05-10T12:44:43.957Z,5.53
2019-05-10T12:46:53.755Z,5.28
2019-05-10T12:48:57.495Z,6.87
2019-05-10T12:51:08.192Z,5.10
2019-05-10T12:53:17.383Z,6.47
2019-05-10T12:55:21.322Z,6.17
2019-05-10T12:57:27.740Z,5.50
2019-05-10T12:59:34.814Z,7.87
2019-05-10T13:01:42.364Z,6.22
2019-05-10T13:03:48.776Z,6.50
2019-05-10T13:05:55.168Z,6.55
2019-05-10T13:08:01.568Z,6.33
2019-05-10T13:10:10.681Z,6.08
2019-05-10T13:12:17.101Z,6.22
2019-05-10T13:14:23.501Z,6.60
2019-05-10T13:16:29.930Z,6.95
2019-05-10T13:18:50.663Z,6.33
2019-05-10T13:20:44.394Z,7.80
2019-05-10T13:22:50.893Z,6.53
2019-05-10T13:24:57.271Z,6.42
2019-05-10T13:27:03.761Z,6.10
2019-05-10T13:29:10.586Z,6.78
2019-05-10T13:45:17.319Z,6.05
2019-05-10T13:47:23.777Z,6.40
2019-05-10T13:49:30.270Z,5.22
2019-05-10T13:51:36.681Z,6.15
2019-05-10T13:53:43.215Z,5.50
2019-05-10T13:55:50.820Z,5.75
2019-05-10T13:57:57.397Z,5.60
2019-05-10T14:00:08.069Z,5.78
2019-05-10T14:02:14.634Z,6.10
2019-05-10T14:04:23.136Z,6.70
2019-05-10T14:06:29.301Z,5.90
2019-05-10T14:08:37.003Z,5.12
2019-05-10T14:10:43.539Z,6.28
2019-05-10T14:12:50.250Z,6.03
2019-05-10T14:15:02.364Z,5.62
2019-05-10T14:17:04.854Z,5.93
2019-05-10T14:19:15.953Z,5.30
2019-05-10T14:21:19.811Z,5.12
2019-05-10T14:23:29.156Z,5.85
2019-05-10T14:25:38.973Z,5.90
2019-05-10T14:27:45.608Z,9.35
2019-05-10T14:29:54.269Z,6.35
2019-05-10T14:32:00.733Z,6.60
2019-05-10T14:34:15.742Z,6.97
2019-05-10T14:36:15.527Z,7.12
2019-05-10T14:38:22.928Z,7.67
2019-05-10T14:40:30.795Z,7.92
2019-05-10T14:42:37.521Z,8.60
2019-05-10T14:44:44.118Z,7.37
2019-05-10T14:46:50.642Z,7.33
2019-05-10T14:48:57.089Z,6.83
2019-05-10T14:51:11.008Z,7.05
2019-05-10T14:53:11.749Z,7.65
2019-05-10T14:55:18.163Z,8.18
2019-05-10T14:57:24.598Z,8.05
2019-05-10T14:59:31.075Z,7.20
2019-05-10T15:01:42.924Z,5.83
2019-05-10T15:03:47.366Z,6.15
2019-05-10T15:05:56.499Z,6.28
2019-05-10T15:08:02.341Z,6.30
2019-05-10T15:10:09.277Z,5.83
2019-05-10T15:12:21.928Z,5.67
2019-05-10T15:14:23.927Z,5.62
2019-05-10T15:16:30.986Z,5.97
2019-05-10T15:18:37.525Z,5.08
2019-05-10T15:20:44.002Z,6.50
2019-05-10T15:22:50.493Z,6.90
2019-05-10T15:24:57.034Z,6.10
2019-05-10T15:27:03.420Z,6.58
2019-05-10T15:29:14.858Z,6.85
2019-05-10T15:31:18.187Z,6.72
2019-05-10T15:33:24.718Z,6.60
2019-05-10T15:35:31.140Z,6.85
2019-05-10T15:37:40.854Z,7.20
2019-05-10T15:39:45.956Z,6.55
2019-05-10T15:41:53.637Z,6.37
2019-05-10T15:44:00.662Z,6.28
2019-05-10T15:46:07.292Z,6.20
2019-05-10T15:48:13.754Z,6.78
2019-05-10T15:50:20.674Z,7.15
2019-05-10T15:52:27.170Z,7.70
2019-05-10T15:54:38.279Z,6.58
2019-05-10T15:56:44.004Z,6.90
2019-05-10T15:58:49.974Z,5.95
2019-05-10T16:00:56.354Z,6.15
2019-05-10T16:03:02.946Z,6.25
2019-05-10T16:05:25.630Z,6.83
2019-05-10T16:07:18.005Z,7.00
2019-05-10T16:09:24.442Z,7.03
2019-05-10T16:11:30.843Z,6.67
2019-05-10T16:13:37.276Z,7.90
2019-05-10T16:15:43.710Z,6.72
2019-05-10T16:17:57.748Z,6.45
2019-05-10T16:20:00.200Z,7.08
2019-05-10T16:22:06.469Z,6.97
2019-05-10T16:24:13.562Z,7.15
2019-05-10T16:26:22.810Z,7.90
2019-05-10T16:28:28.336Z,7.45
2019-05-10T16:30:36.619Z,7.25
2019-05-10T16:32:43.095Z,8.40
2019-05-10T16:34:49.662Z,12.68
2019-05-10T16:36:56.264Z,9.50
2019-05-10T16:39:02.723Z,8.98
2019-05-10T16:41:09.651Z,8.45
2019-05-10T16:43:22.211Z,7.42
2019-05-10T16:45:24.458Z,9.10
2019-05-10T16:47:32.254Z,7.70
2019-05-10T16:49:38.749Z,8.48
2019-05-10T16:51:47.658Z,7.95
2019-05-10T16:53:53.381Z,8.35
2019-05-10T16:56:01.542Z,14.63
2019-05-10T16:58:09.584Z,7.75
2019-05-10T17:00:19.007Z,8.40
2019-05-10T17:02:25.515Z,8.35
2019-05-10T17:04:37.302Z,7.90
2019-05-10T17:06:40.670Z,8.20
2019-05-10T17:08:48.442Z,7.53
2019-05-10T17:10:54.838Z,7.12
2019-05-10T17:13:05.079Z,8.58
2019-05-10T17:15:09.810Z,7.93
2019-05-10T17:17:16.204Z,7.62
2019-05-10T17:19:27.782Z,8.18
2019-05-10T17:21:30.837Z,7.85
2019-05-10T17:23:41.623Z,8.53
2019-05-10T17:25:47.432Z,8.10
2019-05-10T17:27:57.407Z,8.25
2019-05-10T17:30:02.188Z,8.47
2019-05-10T17:32:08.637Z,8.18
2019-05-10T17:34:25.753Z,8.70
2019-05-10T17:36:23.303Z,9.80
2019-05-10T17:38:31.714Z,9.73
2019-05-10T17:40:42.268Z,9.63
2019-05-10T17:42:46.210Z,10.25
2019-05-10T17:44:55.270Z,9.55
2019-05-10T17:47:02.073Z,9.93
2019-05-10T17:49:08.736Z,10.45
2019-05-10T17:51:15.244Z,9.95
2019-05-10T17:53:21.713Z,10.80
2019-05-10T17:55:28.135Z,12.98
2019-05-10T17:57:34.524Z,11.83
2019-05-10T17:59:41.075Z,12.45
2019-05-10T18:01:47.595Z,12.78
2019-05-10T18:03:54.097Z,12.18
2019-05-10T18:06:00.697Z,13.00
2019-05-10T18:08:07.310Z,13.83
2019-05-10T18:10:14.198Z,13.75
2019-05-10T18:12:26.126Z,15.05
2019-05-10T18:14:29.608Z,13.83
2019-05-10T18:16:36.255Z,13.15
2019-05-10T18:18:46.674Z,15.28
2019-05-10T18:20:50.893Z,15.40
2019-05-10T18:22:57.358Z,14.83
2019-05-10T18:25:13.248Z,14.90
2019-05-10T18:27:15.987Z,13.65
2019-05-10T18:29:22.389Z,14.23
2019-05-10T18:31:28.873Z,13.43
2019-05-10T18:33:35.344Z,13.70
2019-05-10T18:35:41.940Z,14.43
2019-05-10T18:37:53.534Z,14.13
2019-05-10T18:39:57.934Z,12.90
2019-05-10T18:42:04.541Z,15.32
2019-05-10T18:44:14.208Z,14.03
2019-05-10T18:46:19.069Z,14.53
2019-05-10T18:48:25.550Z,14.10
2019-05-10T18:50:31.955Z,14.45
2019-05-10T18:52:38.601Z,13.18
2019-05-10T18:54:45.042Z,13.45
2019-05-10T18:56:51.529Z,13.18
2019-05-10T18:59:06.830Z,13.48
2019-05-10T19:01:06.219Z,14.13
2019-05-10T19:03:12.920Z,14.00
2019-05-10T19:05:19.627Z,13.60
2019-05-10T19:07:26.195Z,14.25
2019-05-10T19:09:32.653Z,13.70
2019-05-10T19:11:40.741Z,12.88
2019-05-10T19:13:53.670Z,13.33
2019-05-10T19:15:58.518Z,13.78
2019-05-10T19:18:04.018Z,12.85
2019-05-10T19:20:16.357Z,15.10
2019-05-10T19:22:18.918Z,14.63
2019-05-10T19:24:30.601Z,13.55
2019-05-10T19:26:33.722Z,13.98
2019-05-10T19:28:40.215Z,14.38
2019-05-10T19:30:46.688Z,13.18
2019-05-10T19:32:56.456Z,14.20
2019-05-10T19:35:01.431Z,13.13
2019-05-10T19:37:08.091Z,13.72
2019-05-10T19:39:14.621Z,12.10
2019-05-10T19:41:25.572Z,13.05
2019-05-10T19:43:29.354Z,12.23
2019-05-10T19:45:35.964Z,13.58
2019-05-10T19:47:42.344Z,13.03
2019-05-10T19:49:51.646Z,12.73
2019-05-10T19:51:56.974Z,12.07
2019-05-10T19:54:03.646Z,12.07
2019-05-10T19:56:10.131Z,13.18
2019-05-10T19:58:16.646Z,12.68
2019-05-10T20:00:23.376Z,12.25
2019-05-10T20:02:29.895Z,11.73
2019-05-10T20:04:36.347Z,11.80
2019-05-10T20:06:43.150Z,11.95
2019-05-10T20:08:49.546Z,11.73
2019-05-10T20:10:56.136Z,11.38
2019-05-10T20:13:02.616Z,10.90
2019-05-10T20:15:13.084Z,11.57
2019-05-10T20:17:19.749Z,12.03
2019-05-10T20:19:26.296Z,11.70
2019-05-10T20:21:32.765Z,11.55
2019-05-10T20:23:39.150Z,11.50
2019-05-10T20:25:45.616Z,12.37
2019-05-10T20:27:52.160Z,11.90
2019-05-10T20:29:58.669Z,11.05
2019-05-10T20:32:05.263Z,11.55
2019-05-10T20:34:11.798Z,11.88
2019-05-10T20:36:18.311Z,10.85
2019-05-10T20:38:24.714Z,13.13
2019-05-10T20:40:31.325Z,12.65
2019-05-10T20:42:37.789Z,12.93
2019-05-10T20:44:44.304Z,12.58
2019-05-10T20:46:51.147Z,12.95
2019-05-10T20:48:57.540Z,12.58
2019-05-10T20:51:03.996Z,12.73
2019-05-10T20:53:10.379Z,13.38
2019-05-10T20:55:17.245Z,13.08
2019-05-10T20:57:23.855Z,12.53
2019-05-10T20:59:30.379Z,13.48
2019-05-10T21:01:36.911Z,12.47
2019-05-10T21:03:43.412Z,13.60
2019-05-10T21:05:49.871Z,13.22
2019-05-10T21:07:56.276Z,13.53
2019-05-10T21:10:02.887Z,12.33
2019-05-10T21:12:09.582Z,13.88
2019-05-10T21:14:16.105Z,13.72
2019-05-10T21:16:22.710Z,14.83
2019-05-10T21:18:29.127Z,15.28
2019-05-10T21:20:35.617Z,14.07
2019-05-10T21:22:42.081Z,15.03
2019-05-10T21:24:48.718Z,15.25
2019-05-10T21:26:55.240Z,15.10
2019-05-10T21:29:01.630Z,16.45
2019-05-10T21:31:08.138Z,16.52
2019-05-10T21:33:14.600Z,18.55
2019-05-10T21:35:21.061Z,22.95
2019-05-10T21:37:28.481Z,23.90
2019-05-10T21:39:35.213Z,25.17
2019-05-10T21:41:41.663Z,21.27
2019-05-10T21:43:48.218Z,21.73
2019-05-10T21:45:54.670Z,21.73
2019-05-10T21:48:01.089Z,22.17
2019-05-10T21:50:08.075Z,21.45
2019-05-10T21:52:14.614Z,20.72
2019-05-10T21:54:21.048Z,17.42
2019-05-10T21:56:27.576Z,18.48
2019-05-10T21:58:33.963Z,16.97
2019-05-10T22:00:50.017Z,18.05
2019-05-10T22:02:58.079Z,17.25
2019-05-10T22:05:05.990Z,18.02
2019-05-10T22:07:12.769Z,18.00
2019-05-10T22:09:19.196Z,17.92
2019-05-10T22:11:26.201Z,18.05
2019-05-10T22:13:32.624Z,20.10
2019-05-10T22:15:39.227Z,17.77
2019-05-10T22:17:45.681Z,15.90
2019-05-10T22:19:52.289Z,17.52
2019-05-10T22:21:58.755Z,17.70
2019-05-10T22:24:05.649Z,15.23
2019-05-10T22:26:12.177Z,15.00
2019-05-10T22:28:18.573Z,16.00
2019-05-10T22:30:25.189Z,15.68
2019-05-10T22:32:31.610Z,16.95
2019-05-10T22:34:37.995Z,18.50
2019-05-10T22:36:44.389Z,18.48
2019-05-10T22:39:05.657Z,18.45
2019-05-10T22:40:59.060Z,17.77
2019-05-10T22:43:05.688Z,18.15
2019-05-10T22:45:13.457Z,18.42
2019-05-10T22:47:19.921Z,19.55
2019-05-10T22:49:26.361Z,19.50
2019-05-10T22:51:32.760Z,19.95
2019-05-10T22:53:39.145Z,19.12
2019-05-10T22:55:45.627Z,19.52
2019-05-10T22:57:52.029Z,17.95
2019-05-10T22:59:58.428Z,18.50
2019-05-10T23:02:05.023Z,18.42
2019-05-10T23:04:11.480Z,18.98
2019-05-10T23:06:18.955Z,18.62
2019-05-10T23:08:26.531Z,18.98
2019-05-10T23:10:33.174Z,18.25
2019-05-10T23:12:39.741Z,18.37
2019-05-10T23:14:46.283Z,18.10
2019-05-10T23:16:52.788Z,18.87
2019-05-10T23:18:59.196Z,18.80
2019-05-10T23:21:05.741Z,17.87
2019-05-10T23:23:12.150Z,19.35
2019-05-10T23:25:18.585Z,17.82
2019-05-10T23:27:24.971Z,17.85
2019-05-10T23:29:31.360Z,18.07
2019-05-10T23:31:37.788Z,19.45
2019-05-10T23:33:44.259Z,19.07
2019-05-10T23:35:50.655Z,21.17
2019-05-10T23:37:57.043Z,21.10
2019-05-10T23:40:04.692Z,19.02
2019-05-10T23:42:11.262Z,18.05
2019-05-10T23:44:17.665Z,17.90
2019-05-10T23:46:24.170Z,18.40
2019-05-10T23:48:30.567Z,17.20
2019-05-10T23:50:36.937Z,17.92
2019-05-10T23:52:43.436Z,18.07
2019-05-10T23:54:49.889Z,18.32
2019-05-10T23:56:56.295Z,18.15
2019-05-10T23:59:02.734Z,18.87
